Time;durP1;ratioP1;P1;durP2;ratioP2;P2;SDS_P1;SDS_P2;PMS_P1;PMS_P2;Temp;Humidity;BMP_temperature;BMP_pressure;BME280_temperature;BME280_humidity;BME280_pressure;Samples;Min_cycle;Max_cycle;Signal;HPM_P1;HPM_P2
2023/01/14 00:01:21;;;;;;;;;;;6.70;99.90;;;;;;5079041;28;1189;-67
2023/01/14 00:03:47;;;;;;;;;;;6.60;99.90;;;;;;5079216;28;1195;-67
2023/01/14 00:06:14;;;;;;;;;;;6.60;99.90;;;;;;5078148;28;1060;-66
2023/01/14 00:08:40;;;;;;;;;;;6.60;99.90;;;;;;5079187;28;1150;-67
2023/01/14 00:11:06;;;;;;;;;;;6.50;99.90;;;;;;5078314;28;973;-66
2023/01/14 00:13:33;;;;;;;;;;;6.50;99.90;;;;;;5060399;28;971;-66
2023/01/14 00:15:59;;;;;;;;;;;6.50;99.90;;;;;;5077369;28;1971;-66
2023/01/14 00:18:25;;;;;;;;;;;6.40;99.90;;;;;;5078600;28;1032;-66
2023/01/14 00:21:10;;;;;;;;;;;6.40;99.90;;;;;;5078520;28;1040;-66
2023/01/14 00:23:36;;;;;;;;;;;6.40;99.90;;;;;;5076913;28;1100;-66
2023/01/14 00:26:03;;;;;;;;;;;6.40;99.90;;;;;;5060503;28;1107;-66
2023/01/14 00:28:29;;;;;;;;;;;6.40;99.90;;;;;;5060618;28;1021;-66
2023/01/14 00:31:00;;;;;;;;;;;6.30;99.90;;;;;;5059557;28;1047;-66
2023/01/14 00:33:26;;;;;;;;;;;6.20;99.90;;;;;;5077775;28;1101;-66
2023/01/14 00:35:52;;;;;;;;;;;6.30;99.90;;;;;;5078427;28;1973;-66
2023/01/14 00:38:20;;;;;;;;;;;6.20;99.90;;;;;;5077397;28;945;-66
2023/01/14 00:40:46;;;;;;;;;;;6.20;99.90;;;;;;5078480;28;1017;-66
2023/01/14 00:43:11;;;;;;;;;;;6.10;99.90;;;;;;5077757;28;1129;-66
2023/01/14 00:45:37;;;;;;;;;;;6.00;99.90;;;;;;5059440;28;1105;-66
2023/01/14 00:48:03;;;;;;;;;;;6.00;99.90;;;;;;5078381;28;1014;-67
2023/01/14 00:50:28;;;;;;;;;;;6.10;99.90;;;;;;5078338;28;1040;-66
2023/01/14 00:52:54;;;;;;;;;;;6.10;99.90;;;;;;5077372;28;1012;-66
2023/01/14 00:55:19;;;;;;;;;;;6.20;99.90;;;;;;5078140;28;1905;-66
2023/01/14 00:57:45;;;;;;;;;;;6.30;99.90;;;;;;5059629;28;1098;-66
2023/01/14 01:00:12;;;;;;;;;;;6.40;99.90;;;;;;5077013;28;1091;-66
2023/01/14 01:02:37;;;;;;;;;;;6.40;99.90;;;;;;5077759;28;1107;-66
2023/01/14 01:05:04;;;;;;;;;;;6.40;99.90;;;;;;5078674;28;1108;-66
2023/01/14 01:07:30;;;;;;;;;;;6.50;99.90;;;;;;5058964;28;1025;-66
2023/01/14 01:09:56;;;;;;;;;;;6.50;99.90;;;;;;5043652;28;1108;-66
2023/01/14 01:12:22;;;;;;;;;;;6.50;99.90;;;;;;5077371;28;1029;-66
2023/01/14 01:14:47;;;;;;;;;;;6.60;99.90;;;;;;5077822;28;1918;-66
2023/01/14 01:17:13;;;;;;;;;;;6.70;99.90;;;;;;5077430;28;1059;-66
2023/01/14 01:19:39;;;;;;;;;;;6.70;99.90;;;;;;5059114;28;1060;-66
2023/01/14 01:22:07;;;;;;;;;;;6.60;99.90;;;;;;5060004;28;1032;-66
2023/01/14 01:24:33;;;;;;;;;;;6.60;99.90;;;;;;5078119;28;963;-66
2023/01/14 01:26:59;;;;;;;;;;;6.60;99.90;;;;;;5058413;28;1041;-66
2023/01/14 01:29:25;;;;;;;;;;;6.60;99.90;;;;;;5077407;28;990;-66
2023/01/14 01:31:50;;;;;;;;;;;6.50;99.90;;;;;;5059896;28;967;-66
2023/01/14 01:34:16;;;;;;;;;;;6.50;99.90;;;;;;5059340;28;1080;-66
2023/01/14 01:36:41;;;;;;;;;;;6.50;99.90;;;;;;5077168;28;1966;-66
2023/01/14 01:39:07;;;;;;;;;;;6.40;99.90;;;;;;5060087;28;1033;-66
2023/01/14 01:41:33;;;;;;;;;;;6.50;99.90;;;;;;5078108;28;1013;-66
2023/01/14 01:44:07;;;;;;;;;;;6.50;99.90;;;;;;5077243;28;1083;-67
2023/01/14 01:46:33;;;;;;;;;;;6.50;99.90;;;;;;5077925;28;1000;-66
2023/01/14 01:49:11;;;;;;;;;;;6.50;99.90;;;;;;5077714;28;1036;-66
2023/01/14 01:51:45;;;;;;;;;;;6.50;99.90;;;;;;5080137;28;1037;-66
2023/01/14 01:54:11;;;;;;;;;;;6.60;99.90;;;;;;5063766;28;1040;-66
2023/01/14 01:56:39;;;;;;;;;;;6.60;99.90;;;;;;5081562;28;1918;-66
2023/01/14 01:59:08;;;;;;;;;;;6.50;99.90;;;;;;5065158;28;1307;-66
2023/01/14 02:01:34;;;;;;;;;;;6.40;99.90;;;;;;5082067;28;1167;-66
2023/01/14 02:04:01;;;;;;;;;;;6.50;99.90;;;;;;5063971;28;1190;-66
2023/01/14 02:06:28;;;;;;;;;;;6.50;99.90;;;;;;5063213;28;1092;-66
2023/01/14 02:08:55;;;;;;;;;;;6.50;99.90;;;;;;5062641;28;1254;-66
2023/01/14 02:11:31;;;;;;;;;;;6.50;99.90;;;;;;5063875;28;1163;-66
2023/01/14 02:14:00;;;;;;;;;;;6.50;99.90;;;;;;5062934;28;1029;-66
2023/01/14 02:16:33;;;;;;;;;;;6.50;99.90;;;;;;5062463;28;1914;-66
2023/01/14 02:19:11;;;;;;;;;;;6.50;99.90;;;;;;5080217;28;1067;-67
2023/01/14 02:21:40;;;;;;;;;;;6.40;99.90;;;;;;5045809;28;1029;-66
2023/01/14 02:24:06;;;;;;;;;;;6.40;99.90;;;;;;5061858;28;1046;-66
2023/01/14 02:26:37;;;;;;;;;;;6.30;99.90;;;;;;5080743;28;946;-66
2023/01/14 02:29:04;;;;;;;;;;;6.30;99.90;;;;;;5061931;28;1036;-66
2023/01/14 02:31:35;;;;;;;;;;;6.20;99.90;;;;;;5061438;28;1147;-67
2023/01/14 02:34:05;;;;;;;;;;;6.20;99.90;;;;;;5062650;28;1005;-67
2023/01/14 02:36:35;;;;;;;;;;;6.10;99.90;;;;;;5061791;28;1996;-67
2023/01/14 02:39:06;;;;;;;;;;;6.10;99.90;;;;;;5079608;28;1009;-66
2023/01/14 02:44:26;;;;;;;;;;;6.00;99.90;;;;;;5044985;28;1068;-67
2023/01/14 02:46:58;;;;;;;;;;;6.00;99.90;;;;;;5061905;28;1058;-66
2023/01/14 02:49:26;;;;;;;;;;;6.00;99.90;;;;;;5061919;28;1075;-67
2023/01/14 02:51:55;;;;;;;;;;;6.00;99.90;;;;;;5044851;28;1100;-66
2023/01/14 02:54:21;;;;;;;;;;;5.90;99.90;;;;;;5079447;28;1051;-66
2023/01/14 02:56:48;;;;;;;;;;;5.90;99.90;;;;;;5079969;28;1934;-66
2023/01/14 02:59:15;;;;;;;;;;;5.90;99.90;;;;;;5079039;28;1120;-67
2023/01/14 03:01:53;;;;;;;;;;;5.90;99.90;;;;;;5061286;28;1034;-67
2023/01/14 03:04:29;;;;;;;;;;;5.90;99.90;;;;;;5080306;28;1126;-67
2023/01/14 03:07:03;;;;;;;;;;;5.90;99.90;;;;;;5079140;28;1004;-67
2023/01/14 03:09:37;;;;;;;;;;;5.80;99.90;;;;;;5062799;28;1087;-67
2023/01/14 03:12:07;;;;;;;;;;;5.80;99.90;;;;;;5044017;28;1029;-67
2023/01/14 03:14:39;;;;;;;;;;;5.70;99.90;;;;;;5062313;28;985;-66
2023/01/14 03:17:09;;;;;;;;;;;5.70;99.90;;;;;;5062213;28;988;-66
2023/01/14 03:19:41;;;;;;;;;;;5.60;99.90;;;;;;5061435;28;983;-67
2023/01/14 03:22:07;;;;;;;;;;;5.60;99.90;;;;;;5044595;28;1091;-67
2023/01/14 03:24:38;;;;;;;;;;;5.60;99.90;;;;;;5080094;28;989;-67
2023/01/14 03:27:07;;;;;;;;;;;5.60;99.90;;;;;;5060614;28;951;-67
2023/01/14 03:29:35;;;;;;;;;;;5.60;99.90;;;;;;5061433;28;1056;-67
2023/01/14 03:32:06;;;;;;;;;;;5.60;99.90;;;;;;5063038;28;1089;-67
2023/01/14 03:34:35;;;;;;;;;;;5.60;99.90;;;;;;5064451;28;1062;-67
2023/01/14 03:37:03;;;;;;;;;;;5.70;99.90;;;;;;5065501;28;1971;-67
2023/01/14 03:39:29;;;;;;;;;;;5.70;99.90;;;;;;5079778;28;1116;-67
2023/01/14 03:44:57;;;;;;;;;;;5.70;99.90;;;;;;5080247;28;1123;-67
2023/01/14 03:47:23;;;;;;;;;;;5.70;99.90;;;;;;5059776;28;1076;-67
2023/01/14 03:49:50;;;;;;;;;;;5.70;99.90;;;;;;5078994;28;974;-67
2023/01/14 03:52:18;;;;;;;;;;;5.60;99.90;;;;;;5080404;28;1167;-67
2023/01/14 03:54:51;;;;;;;;;;;5.70;99.90;;;;;;5079583;28;1891;-67
2023/01/14 03:57:20;;;;;;;;;;;5.70;99.90;;;;;;5078388;28;1181;-67
2023/01/14 03:59:49;;;;;;;;;;;5.60;99.90;;;;;;5079854;28;1270;-67
2023/01/14 04:02:15;;;;;;;;;;;5.50;99.90;;;;;;5059988;28;1226;-67
2023/01/14 04:04:42;;;;;;;;;;;5.60;99.90;;;;;;5079044;28;996;-67
2023/01/14 04:07:07;;;;;;;;;;;5.50;99.90;;;;;;5078570;28;973;-67
2023/01/14 04:09:33;;;;;;;;;;;5.50;99.90;;;;;;5077812;28;1091;-67
2023/01/14 04:11:59;;;;;;;;;;;5.50;99.90;;;;;;5061353;28;1040;-67
2023/01/14 04:17:09;;;;;;;;;;;5.60;99.90;;;;;;5078347;28;1121;-67
2023/01/14 04:19:34;;;;;;;;;;;5.60;99.90;;;;;;5059832;28;1001;-67
2023/01/14 04:22:00;;;;;;;;;;;5.60;99.90;;;;;;5078790;28;967;-67
2023/01/14 04:24:25;;;;;;;;;;;5.60;99.90;;;;;;5077274;28;1007;-67
2023/01/14 04:26:51;;;;;;;;;;;5.60;99.90;;;;;;5078198;28;1054;-67
2023/01/14 04:29:17;;;;;;;;;;;5.60;99.90;;;;;;5077797;28;1079;-67
2023/01/14 04:31:42;;;;;;;;;;;5.50;99.90;;;;;;5078000;28;1021;-67
2023/01/14 04:34:08;;;;;;;;;;;5.50;99.90;;;;;;5078501;28;1043;-67
2023/01/14 04:36:34;;;;;;;;;;;5.50;99.90;;;;;;5077962;28;1973;-66
2023/01/14 04:39:00;;;;;;;;;;;5.50;99.90;;;;;;5078341;28;1035;-66
2023/01/14 04:44:17;;;;;;;;;;;5.40;99.90;;;;;;5077069;28;1118;-67
2023/01/14 04:46:43;;;;;;;;;;;5.40;99.90;;;;;;5078629;28;1055;-67
2023/01/14 04:49:08;;;;;;;;;;;5.50;99.90;;;;;;5058932;28;1048;-67
2023/01/14 04:51:34;;;;;;;;;;;5.40;99.90;;;;;;5077725;28;1020;-67
2023/01/14 04:54:00;;;;;;;;;;;5.40;99.90;;;;;;5077827;28;1133;-67
2023/01/14 04:56:25;;;;;;;;;;;5.40;99.90;;;;;;5078117;28;1963;-67
2023/01/14 04:58:51;;;;;;;;;;;5.40;99.90;;;;;;5077512;28;1095;-67
2023/01/14 05:01:16;;;;;;;;;;;5.40;99.90;;;;;;5078063;28;1012;-67
2023/01/14 05:03:42;;;;;;;;;;;5.70;99.90;;;;;;5060013;28;1262;-67
2023/01/14 05:06:08;;;;;;;;;;;5.50;99.90;;;;;;5077847;28;1000;-67
2023/01/14 05:08:34;;;;;;;;;;;5.50;99.90;;;;;;5060159;28;1100;-67
2023/01/14 05:10:59;;;;;;;;;;;5.50;99.90;;;;;;5060276;28;1052;-67
2023/01/14 05:13:25;;;;;;;;;;;5.50;99.90;;;;;;5059073;28;1028;-67
2023/01/14 05:15:50;;;;;;;;;;;5.50;99.90;;;;;;5059851;28;1914;-67
2023/01/14 05:18:16;;;;;;;;;;;5.40;99.90;;;;;;5077287;28;988;-67
2023/01/14 05:20:43;;;;;;;;;;;5.40;99.90;;;;;;5058956;28;1787;-67
2023/01/14 05:23:15;;;;;;;;;;;5.40;99.90;;;;;;5078347;28;1020;-67
2023/01/14 05:25:42;;;;;;;;;;;5.40;99.90;;;;;;5077457;28;1097;-67
2023/01/14 05:28:10;;;;;;;;;;;5.40;99.90;;;;;;5081552;28;1080;-67
2023/01/14 05:30:35;;;;;;;;;;;5.40;99.90;;;;;;5082071;28;1021;-67
2023/01/14 05:33:01;;;;;;;;;;;5.50;99.90;;;;;;5080218;28;1013;-67
2023/01/14 05:35:27;;;;;;;;;;;5.50;99.90;;;;;;5081923;28;1917;-67
2023/01/14 05:37:53;;;;;;;;;;;5.40;99.90;;;;;;5081861;28;930;-67
2023/01/14 05:40:18;;;;;;;;;;;5.50;99.90;;;;;;5080690;28;1039;-67
2023/01/14 05:45:38;;;;;;;;;;;5.50;99.90;;;;;;5063453;28;1076;-67
2023/01/14 05:48:04;;;;;;;;;;;5.60;99.90;;;;;;5063397;28;1020;-67
2023/01/14 05:50:29;;;;;;;;;;;5.60;99.90;;;;;;5081462;28;1032;-67
2023/01/14 05:52:55;;;;;;;;;;;5.50;99.90;;;;;;5081165;28;1039;-67
2023/01/14 05:55:21;;;;;;;;;;;5.60;99.90;;;;;;5080461;28;1906;-67
2023/01/14 05:57:46;;;;;;;;;;;5.60;99.90;;;;;;5080527;28;1191;-67
2023/01/14 06:06:20;;;;;;;;;;;5.60;99.90;;;;;;5080852;28;994;-67
2023/01/14 06:08:27;;;;;;;;;;;5.50;99.90;;;;;;5079879;28;1056;-67
2023/01/14 06:10:53;;;;;;;;;;;5.50;99.90;;;;;;5062545;28;987;-67
2023/01/14 06:13:22;;;;;;;;;;;5.60;99.90;;;;;;5081564;28;1020;-67
2023/01/14 06:15:51;;;;;;;;;;;5.50;99.90;;;;;;5080582;28;1930;-67
2023/01/14 06:18:21;;;;;;;;;;;5.60;99.90;;;;;;5080118;28;1017;-67
2023/01/14 06:20:53;;;;;;;;;;;5.50;99.90;;;;;;5081035;28;1032;-67
2023/01/14 06:23:20;;;;;;;;;;;5.50;99.90;;;;;;5080322;28;1076;-67
2023/01/14 06:25:46;;;;;;;;;;;5.50;99.90;;;;;;5062073;28;1107;-67
2023/01/14 06:28:12;;;;;;;;;;;5.50;99.90;;;;;;5080703;28;1185;-67
2023/01/14 06:30:38;;;;;;;;;;;5.70;99.90;;;;;;5080105;28;969;-67
2023/01/14 06:33:06;;;;;;;;;;;5.60;99.90;;;;;;5080772;28;1019;-67
2023/01/14 06:35:32;;;;;;;;;;;5.60;99.90;;;;;;5062546;28;2001;-67
2023/01/14 06:37:57;;;;;;;;;;;5.60;99.90;;;;;;5079668;28;1076;-67
2023/01/14 06:40:23;;;;;;;;;;;5.60;99.90;;;;;;5080470;28;1147;-67
2023/01/14 06:42:52;;;;;;;;;;;5.60;99.90;;;;;;5061765;28;1068;-67
2023/01/14 06:45:17;;;;;;;;;;;5.60;99.90;;;;;;5079963;28;980;-67
2023/01/14 06:47:43;;;;;;;;;;;5.60;99.90;;;;;;5080234;28;1037;-67
2023/01/14 06:50:09;;;;;;;;;;;5.60;99.90;;;;;;5079491;28;1036;-67
2023/01/14 06:52:34;;;;;;;;;;;5.60;99.90;;;;;;5079998;28;966;-67
2023/01/14 06:55:00;;;;;;;;;;;5.60;99.90;;;;;;5078700;28;1991;-67
2023/01/14 06:57:26;;;;;;;;;;;5.60;99.90;;;;;;5080697;28;1128;-67
2023/01/14 06:59:52;;;;;;;;;;;5.60;99.90;;;;;;5081208;28;1255;-67
2023/01/14 07:02:18;;;;;;;;;;;5.60;99.90;;;;;;5080841;28;1184;-68
2023/01/14 07:04:44;;;;;;;;;;;5.50;99.90;;;;;;5079727;28;1356;-68
2023/01/14 07:07:10;;;;;;;;;;;5.60;99.90;;;;;;5079998;28;1084;-68
2023/01/14 07:09:35;;;;;;;;;;;5.50;99.90;;;;;;5062621;28;1308;-68
2023/01/14 07:12:02;;;;;;;;;;;5.50;99.90;;;;;;5079297;28;1057;-68
2023/01/14 07:14:28;;;;;;;;;;;5.50;99.90;;;;;;5079614;28;1021;-68
2023/01/14 07:16:53;;;;;;;;;;;5.50;99.90;;;;;;5079743;28;1902;-68
2023/01/14 07:19:19;;;;;;;;;;;5.60;99.90;;;;;;5062571;28;1082;-68
2023/01/14 07:21:45;;;;;;;;;;;5.60;99.90;;;;;;5061575;28;1649;-68
2023/01/14 07:24:10;;;;;;;;;;;5.70;99.90;;;;;;5061433;28;1163;-68
2023/01/14 07:26:36;;;;;;;;;;;5.60;99.90;;;;;;5061390;28;1101;-68
2023/01/14 07:29:02;;;;;;;;;;;5.70;99.90;;;;;;5063079;28;1098;-68
2023/01/14 07:31:28;;;;;;;;;;;5.60;99.90;;;;;;5064807;28;1078;-68
2023/01/14 07:33:53;;;;;;;;;;;5.60;99.90;;;;;;5079705;28;1105;-68
2023/01/14 07:36:19;;;;;;;;;;;5.60;99.90;;;;;;5079454;28;1906;-68
2023/01/14 07:38:45;;;;;;;;;;;5.60;99.90;;;;;;5078370;28;1059;-68
2023/01/14 07:41:11;;;;;;;;;;;5.60;99.90;;;;;;5060713;28;1057;-68
2023/01/14 07:43:37;;;;;;;;;;;5.60;99.90;;;;;;5079107;28;1014;-68
2023/01/14 07:46:06;;;;;;;;;;;5.60;99.90;;;;;;5078569;28;1327;-68
2023/01/14 07:48:32;;;;;;;;;;;5.70;99.90;;;;;;5078633;28;1129;-68
2023/01/14 07:50:57;;;;;;;;;;;5.70;99.90;;;;;;5061808;28;1231;-68
2023/01/14 07:53:23;;;;;;;;;;;5.70;99.90;;;;;;5060982;28;1726;-68
2023/01/14 07:55:49;;;;;;;;;;;5.80;99.90;;;;;;5079985;28;1914;-68
2023/01/14 07:58:15;;;;;;;;;;;5.80;99.90;;;;;;5061907;28;1375;-68
2023/01/14 08:00:40;;;;;;;;;;;5.80;99.90;;;;;;5061876;28;1117;-68
2023/01/14 08:03:06;;;;;;;;;;;5.80;99.90;;;;;;5080569;28;1135;-67
2023/01/14 08:05:33;;;;;;;;;;;5.70;99.90;;;;;;5078999;28;984;-68
2023/01/14 08:07:59;;;;;;;;;;;5.80;99.90;;;;;;5043592;28;1099;-68
2023/01/14 08:10:24;;;;;;;;;;;5.80;99.90;;;;;;5079447;28;1139;-68
2023/01/14 08:12:50;;;;;;;;;;;5.80;99.90;;;;;;5078284;28;1028;-68
2023/01/14 08:15:16;;;;;;;;;;;5.80;99.90;;;;;;5078197;28;2029;-68
2023/01/14 08:17:42;;;;;;;;;;;5.80;99.90;;;;;;5078920;28;1060;-68
2023/01/14 08:20:09;;;;;;;;;;;5.80;99.90;;;;;;5077541;28;2168;-68
2023/01/14 08:22:34;;;;;;;;;;;5.80;99.90;;;;;;5075182;28;2165;-68
2023/01/14 08:25:00;;;;;;;;;;;5.80;99.90;;;;;;5077549;28;1140;-68
2023/01/14 08:27:27;;;;;;;;;;;5.80;99.90;;;;;;5060623;28;1107;-68
2023/01/14 08:29:52;;;;;;;;;;;5.80;99.90;;;;;;5077899;28;1128;-68
2023/01/14 08:32:18;;;;;;;;;;;5.80;99.90;;;;;;5080107;28;1111;-68
2023/01/14 08:34:44;;;;;;;;;;;5.90;99.90;;;;;;5079838;28;1085;-68
2023/01/14 08:37:09;;;;;;;;;;;5.90;99.90;;;;;;5077245;28;1910;-68
2023/01/14 08:39:35;;;;;;;;;;;6.00;99.90;;;;;;5059085;28;1012;-68
2023/01/14 08:42:01;;;;;;;;;;;5.90;99.90;;;;;;5078377;28;1275;-68
2023/01/14 08:44:26;;;;;;;;;;;6.00;99.90;;;;;;5077584;28;1313;-68
2023/01/14 08:46:52;;;;;;;;;;;6.00;99.90;;;;;;5060381;28;1120;-69
2023/01/14 08:49:17;;;;;;;;;;;5.90;99.90;;;;;;5077731;28;1184;-68
2023/01/14 08:51:43;;;;;;;;;;;6.00;99.90;;;;;;5077901;28;1136;-69
2023/01/14 08:54:09;;;;;;;;;;;6.10;99.90;;;;;;5058343;28;2606;-68
2023/01/14 08:56:35;;;;;;;;;;;6.10;99.90;;;;;;5056821;28;1910;-68
2023/01/14 08:59:01;;;;;;;;;;;6.10;99.90;;;;;;5075739;28;2251;-68
2023/01/14 09:01:27;;;;;;;;;;;6.00;99.90;;;;;;5060947;28;1083;-68
2023/01/14 09:03:57;;;;;;;;;;;6.10;99.90;;;;;;5078693;28;1441;-68
2023/01/14 09:06:23;;;;;;;;;;;6.00;99.90;;;;;;5060186;28;1029;-68
2023/01/14 09:17:11;;;;;;;;;;;6.00;99.90;;;;;;5082404;28;1914;-68
2023/01/14 09:19:46;;;;;;;;;;;6.00;99.90;;;;;;5081185;28;1009;-68
2023/01/14 09:22:13;;;;;;;;;;;5.90;99.90;;;;;;5081637;28;1024;-69
2023/01/14 09:24:39;;;;;;;;;;;5.90;99.90;;;;;;5080548;28;1200;-68
2023/01/14 09:27:05;;;;;;;;;;;6.00;99.90;;;;;;5082346;28;1012;-68
2023/01/14 09:29:30;;;;;;;;;;;5.90;99.90;;;;;;5081601;28;1063;-68
2023/01/14 09:31:56;;;;;;;;;;;5.90;99.90;;;;;;5080605;28;1060;-68
2023/01/14 09:34:22;;;;;;;;;;;6.00;99.90;;;;;;5081571;28;1363;-68
2023/01/14 09:36:49;;;;;;;;;;;6.00;99.90;;;;;;5081891;28;1967;-68
2023/01/14 09:39:15;;;;;;;;;;;6.00;99.90;;;;;;5062955;28;991;-68
2023/01/14 09:41:50;;;;;;;;;;;6.00;99.90;;;;;;5081022;28;986;-68
2023/01/14 09:44:16;;;;;;;;;;;6.00;99.90;;;;;;5081388;28;1017;-68
2023/01/14 09:46:42;;;;;;;;;;;6.00;99.90;;;;;;5080786;28;1012;-68
2023/01/14 09:49:11;;;;;;;;;;;6.00;99.90;;;;;;5081792;28;993;-68
2023/01/14 09:51:44;;;;;;;;;;;6.00;99.90;;;;;;5080300;28;1101;-68
2023/01/14 09:54:13;;;;;;;;;;;6.00;99.90;;;;;;5062127;28;1041;-68
2023/01/14 09:56:44;;;;;;;;;;;6.00;99.90;;;;;;5063170;28;1938;-68
2023/01/14 09:59:17;;;;;;;;;;;6.00;99.90;;;;;;5062958;28;1331;-68
2023/01/14 10:01:43;;;;;;;;;;;6.00;99.90;;;;;;5080691;28;969;-69
2023/01/14 10:04:22;;;;;;;;;;;6.00;99.90;;;;;;5081326;28;1229;-68
2023/01/14 10:06:51;;;;;;;;;;;6.00;99.90;;;;;;5080358;28;1001;-68
2023/01/14 10:09:23;;;;;;;;;;;6.00;99.90;;;;;;5063027;28;1105;-68
2023/01/14 10:11:49;;;;;;;;;;;6.00;99.90;;;;;;5081071;28;1009;-69
2023/01/14 10:14:18;;;;;;;;;;;6.00;99.90;;;;;;5079951;28;973;-69
2023/01/14 10:16:46;;;;;;;;;;;6.00;99.90;;;;;;5080602;28;1963;-68
2023/01/14 10:19:15;;;;;;;;;;;6.10;99.90;;;;;;5080843;28;1155;-68
2023/01/14 10:21:40;;;;;;;;;;;6.00;99.90;;;;;;5080068;28;992;-69
2023/01/14 10:24:11;;;;;;;;;;;6.10;99.90;;;;;;5080768;28;982;-68
2023/01/14 10:26:38;;;;;;;;;;;6.10;99.90;;;;;;5062462;28;1008;-68
2023/01/14 10:29:11;;;;;;;;;;;6.10;99.90;;;;;;5062416;28;1049;-68
2023/01/14 10:31:37;;;;;;;;;;;6.30;99.90;;;;;;5062864;28;1041;-69
2023/01/14 10:34:03;;;;;;;;;;;6.10;99.90;;;;;;5080089;28;1068;-68
2023/01/14 10:36:30;;;;;;;;;;;6.10;99.90;;;;;;5061395;28;1933;-69
2023/01/14 10:38:58;;;;;;;;;;;6.10;99.90;;;;;;5080237;28;1012;-68
2023/01/14 10:41:49;;;;;;;;;;;6.10;99.90;;;;;;5080451;28;1068;-68
2023/01/14 10:44:23;;;;;;;;;;;6.20;99.90;;;;;;5061192;28;1268;-69
2023/01/14 10:46:51;;;;;;;;;;;6.20;99.90;;;;;;5080709;28;1024;-68
2023/01/14 10:49:20;;;;;;;;;;;6.20;99.90;;;;;;5079883;28;966;-69
2023/01/14 10:51:49;;;;;;;;;;;6.20;99.90;;;;;;5061257;28;1032;-69
2023/01/14 10:54:17;;;;;;;;;;;6.30;99.90;;;;;;5080089;28;997;-68
2023/01/14 10:56:48;;;;;;;;;;;6.30;99.90;;;;;;5079321;28;1909;-69
2023/01/14 10:59:22;;;;;;;;;;;6.30;99.90;;;;;;5079228;28;1087;-69
2023/01/14 11:01:48;;;;;;;;;;;6.30;99.90;;;;;;5080220;28;1064;-69
2023/01/14 11:04:13;;;;;;;;;;;6.40;99.90;;;;;;5079811;28;1353;-68
2023/01/14 11:06:39;;;;;;;;;;;6.40;99.90;;;;;;5079343;28;1041;-69
2023/01/14 11:09:05;;;;;;;;;;;6.50;99.90;;;;;;5060831;28;2242;-69
2023/01/14 11:11:39;;;;;;;;;;;6.50;99.90;;;;;;5079302;28;1083;-68
2023/01/14 11:14:17;;;;;;;;;;;6.50;99.90;;;;;;5079903;28;974;-69
2023/01/14 11:16:42;;;;;;;;;;;6.50;99.90;;;;;;5080325;28;2102;-69
2023/01/14 11:19:24;;;;;;;;;;;6.60;99.90;;;;;;5060203;28;1024;-68
2023/01/14 11:21:52;;;;;;;;;;;6.50;99.90;;;;;;5061418;28;1049;-69
2023/01/14 11:24:36;;;;;;;;;;;6.60;99.90;;;;;;5078221;28;973;-68
2023/01/14 11:27:02;;;;;;;;;;;6.60;99.90;;;;;;5079338;28;1001;-69
2023/01/14 11:29:29;;;;;;;;;;;6.60;99.90;;;;;;5079123;28;920;-69
2023/01/14 11:31:57;;;;;;;;;;;6.60;99.90;;;;;;5060833;28;1016;-69
2023/01/14 11:34:36;;;;;;;;;;;6.60;99.90;;;;;;5060954;28;996;-69
2023/01/14 11:37:10;;;;;;;;;;;6.60;99.90;;;;;;5062048;28;1929;-68
2023/01/14 11:39:38;;;;;;;;;;;6.70;99.90;;;;;;5078444;28;965;-68
2023/01/14 11:42:21;;;;;;;;;;;6.80;99.90;;;;;;5061136;28;986;-69
2023/01/14 11:45:03;;;;;;;;;;;6.80;99.90;;;;;;5060018;28;1040;-69
2023/01/14 11:47:30;;;;;;;;;;;6.80;99.90;;;;;;5078843;28;989;-68
2023/01/14 11:50:09;;;;;;;;;;;6.80;99.90;;;;;;5061653;28;1036;-69
2023/01/14 11:52:34;;;;;;;;;;;6.80;99.90;;;;;;5078667;28;1032;-68
2023/01/14 11:55:00;;;;;;;;;;;6.80;99.90;;;;;;5078054;28;1985;-68
2023/01/14 11:57:26;;;;;;;;;;;6.80;99.90;;;;;;5078674;28;1080;-69
2023/01/14 11:59:53;;;;;;;;;;;6.80;99.90;;;;;;5078102;28;1123;-69
2023/01/14 12:02:28;;;;;;;;;;;6.80;99.90;;;;;;5060989;28;1069;-69
2023/01/14 12:04:54;;;;;;;;;;;6.90;99.90;;;;;;5078963;28;1297;-69
2023/01/14 12:07:33;;;;;;;;;;;6.90;99.90;;;;;;5078252;28;1017;-69
2023/01/14 12:10:17;;;;;;;;;;;6.90;99.90;;;;;;5079704;28;1100;-69
2023/01/14 12:18:27;;;;;;;;;;;6.90;99.90;;;;;;5078854;28;966;-69
2023/01/14 12:20:53;;;;;;;;;;;6.90;99.90;;;;;;5077398;28;1031;-68
2023/01/14 12:23:20;;;;;;;;;;;6.90;99.90;;;;;;5078982;28;1017;-69
2023/01/14 12:25:48;;;;;;;;;;;6.90;99.90;;;;;;5078607;28;974;-69
2023/01/14 12:28:21;;;;;;;;;;;6.90;99.90;;;;;;5077784;28;1060;-69
2023/01/14 12:30:47;;;;;;;;;;;7.00;99.90;;;;;;5060218;28;1029;-69
2023/01/14 12:33:19;;;;;;;;;;;6.90;99.90;;;;;;5078485;28;997;-68
2023/01/14 12:35:48;;;;;;;;;;;7.00;99.90;;;;;;5077327;28;1910;-68
2023/01/14 12:46:36;;;;;;;;;;;7.00;99.90;;;;;;5078501;28;1080;-68
2023/01/14 12:49:03;;;;;;;;;;;7.00;99.90;;;;;;5076651;28;1165;-69
2023/01/14 12:51:30;;;;;;;;;;;7.00;99.90;;;;;;5077681;28;972;-69
2023/01/14 12:53:58;;;;;;;;;;;7.00;99.90;;;;;;5059870;28;1043;-69
2023/01/14 12:56:26;;;;;;;;;;;7.10;99.90;;;;;;5077043;28;1926;-69
2023/01/14 12:58:56;;;;;;;;;;;7.10;99.90;;;;;;5077497;28;1116;-69
2023/01/14 13:01:25;;;;;;;;;;;7.10;99.90;;;;;;5059684;28;2097;-69
2023/01/14 13:03:55;;;;;;;;;;;7.10;99.90;;;;;;5078119;28;1214;-69
2023/01/14 13:06:33;;;;;;;;;;;7.10;99.90;;;;;;5077347;28;1097;-68
2023/01/14 13:09:00;;;;;;;;;;;7.20;99.90;;;;;;5076863;28;2113;-68
2023/01/14 13:11:27;;;;;;;;;;;7.20;99.90;;;;;;5077336;28;1025;-68
2023/01/14 13:13:55;;;;;;;;;;;7.20;99.90;;;;;;5077499;28;1068;-68
2023/01/14 13:16:28;;;;;;;;;;;7.20;99.90;;;;;;5078780;28;1922;-68
2023/01/14 13:18:57;;;;;;;;;;;7.20;99.90;;;;;;5058641;28;992;-68
2023/01/14 13:21:41;;;;;;;;;;;7.30;99.90;;;;;;5043630;28;1084;-69
2023/01/14 13:24:26;;;;;;;;;;;7.30;99.90;;;;;;5076813;28;1003;-69
2023/01/14 13:26:52;;;;;;;;;;;7.30;99.90;;;;;;5077812;28;1063;-68
2023/01/14 13:29:19;;;;;;;;;;;7.30;99.90;;;;;;5077917;28;976;-69
2023/01/14 13:31:45;;;;;;;;;;;7.40;99.90;;;;;;5058816;28;1075;-68
2023/01/14 13:34:21;;;;;;;;;;;7.40;99.90;;;;;;5077745;28;965;-68
2023/01/14 13:36:47;;;;;;;;;;;7.50;99.90;;;;;;5059484;28;1910;-68
2023/01/14 13:39:18;;;;;;;;;;;7.50;99.90;;;;;;5058943;28;1084;-69
2023/01/14 13:41:47;;;;;;;;;;;7.50;99.90;;;;;;5077313;28;1005;-68
2023/01/14 13:44:19;;;;;;;;;;;7.60;99.90;;;;;;5077984;28;1040;-69
2023/01/14 13:46:48;;;;;;;;;;;7.70;99.90;;;;;;5077571;28;1068;-68
2023/01/14 13:49:24;;;;;;;;;;;7.70;99.90;;;;;;5062981;28;1029;-68
2023/01/14 13:51:51;;;;;;;;;;;7.70;99.90;;;;;;5081094;28;1045;-68
2023/01/14 13:54:18;;;;;;;;;;;7.80;99.90;;;;;;5080930;28;1133;-69
2023/01/14 13:56:47;;;;;;;;;;;7.80;99.90;;;;;;5062813;28;1909;-68
2023/01/14 13:59:18;;;;;;;;;;;7.80;99.90;;;;;;5079664;28;1218;-68
2023/01/14 14:01:45;;;;;;;;;;;7.90;99.90;;;;;;5081069;28;953;-69
2023/01/14 14:04:12;;;;;;;;;;;7.90;99.90;;;;;;5080720;28;1178;-68
2023/01/14 14:06:37;;;;;;;;;;;7.90;99.90;;;;;;5062361;28;1118;-68
2023/01/14 14:09:17;;;;;;;;;;;7.90;99.90;;;;;;5081140;28;1157;-68
2023/01/14 14:11:46;;;;;;;;;;;7.90;99.90;;;;;;5082417;28;1299;-68
2023/01/14 14:14:15;;;;;;;;;;;8.00;99.90;;;;;;5062105;28;1346;-68
2023/01/14 14:16:51;;;;;;;;;;;8.00;99.90;;;;;;5062418;28;1922;-68
2023/01/14 14:19:19;;;;;;;;;;;8.00;99.90;;;;;;5081086;28;831;-69
2023/01/14 14:21:47;;;;;;;;;;;8.00;99.90;;;;;;5079844;28;1123;-69
2023/01/14 14:24:26;;;;;;;;;;;8.10;99.90;;;;;;5080390;28;1040;-69
2023/01/14 14:26:52;;;;;;;;;;;8.10;99.90;;;;;;5080321;28;1028;-68
2023/01/14 14:29:19;;;;;;;;;;;8.10;99.90;;;;;;5061920;28;1048;-69
2023/01/14 14:31:45;;;;;;;;;;;8.10;99.90;;;;;;5080913;28;1102;-69
2023/01/14 14:34:11;;;;;;;;;;;8.20;99.90;;;;;;5079158;28;1045;-69
2023/01/14 14:36:39;;;;;;;;;;;8.30;99.90;;;;;;5080412;28;1918;-69
2023/01/14 14:39:18;;;;;;;;;;;8.30;99.90;;;;;;5080278;28;966;-69
2023/01/14 14:41:44;;;;;;;;;;;8.30;99.90;;;;;;5079099;28;1140;-69
2023/01/14 14:44:15;;;;;;;;;;;8.30;99.90;;;;;;5080724;28;1248;-69
2023/01/14 14:46:41;;;;;;;;;;;8.40;99.90;;;;;;5080617;28;1025;-69
2023/01/14 14:49:25;;;;;;;;;;;8.40;99.90;;;;;;5079213;28;977;-69
2023/01/14 14:51:52;;;;;;;;;;;8.40;99.90;;;;;;5080034;28;988;-69
2023/01/14 14:54:24;;;;;;;;;;;8.50;99.90;;;;;;5080144;28;1098;-69
2023/01/14 14:56:50;;;;;;;;;;;8.50;99.90;;;;;;5080433;28;1967;-69
2023/01/14 14:59:16;;;;;;;;;;;8.40;99.90;;;;;;5079779;28;1199;-69
2023/01/14 15:01:42;;;;;;;;;;;8.50;99.90;;;;;;5079760;28;1019;-69
2023/01/14 15:04:15;;;;;;;;;;;8.60;99.90;;;;;;5079461;28;1217;-69
2023/01/14 15:06:40;;;;;;;;;;;8.50;99.90;;;;;;5079886;28;1139;-69
2023/01/14 15:09:08;;;;;;;;;;;8.50;99.90;;;;;;5078938;28;2505;-69
2023/01/14 15:11:35;;;;;;;;;;;8.60;99.90;;;;;;5079912;28;2401;-69
2023/01/14 15:14:01;;;;;;;;;;;8.50;99.90;;;;;;5079981;28;1127;-70
2023/01/14 15:16:34;;;;;;;;;;;8.50;99.90;;;;;;5079063;28;1937;-70
2023/01/14 15:19:00;;;;;;;;;;;8.60;99.90;;;;;;5078708;28;1210;-70
2023/01/14 15:21:27;;;;;;;;;;;8.60;99.90;;;;;;5061668;28;1005;-69
2023/01/14 15:23:55;;;;;;;;;;;8.60;99.90;;;;;;5078966;28;1001;-69
2023/01/14 15:26:29;;;;;;;;;;;7.60;99.90;;;;;;5079226;28;968;-69
2023/01/14 15:28:56;;;;;;;;;;;8.70;99.90;;;;;;5079219;28;1079;-69
2023/01/14 15:31:26;;;;;;;;;;;8.70;99.90;;;;;;5061251;28;1025;-69
2023/01/14 15:34:03;;;;;;;;;;;8.70;99.90;;;;;;5079354;28;1048;-70